Latest Weather Observations for Rhyll

IDV60901

Issued at 5:21 pm EST Tuesday 20 April 2021 (issued every 10 minutes, with the page automatically refreshed every 10 minutes)

About weather observations | Map of Melbourne area stations | Latest observations for Melbourne area | Other Formats
Station Details ID: 086373 Name: RHYLL Lat: -38.46 Lon: 145.31 Height: 13.4 m
Data from the previous 72 hours. | See also: Recent months at Rhyll
Date/Time
EST
Temp
°C
App
Temp
°C
Dew
Point
°C
Rel
Hum
%
Delta-T
°C
Wind Press
QNH
hPa
Press
MSL
hPa
Rain since
9am
mm
Dir  Spd
km/h
Gust
km/h
Spd
kts
Gust
kts
20/05:00pm 11.5 7.0 7.0 74 2.1 SSW 20 39 11 21 1011.9 1011.9 5.0
20/04:33pm 11.5 5.6 7.6 77 1.9 SW 28 54 15 29 1011.3 1011.3 5.0
20/04:30pm 11.7 6.9 7.4 75 2.1 SW 22 54 12 29 1011.2 1011.2 5.0
20/04:00pm 11.1 6.9 8.1 82 1.5 SW 20 32 11 17 1010.8 1010.8 4.8
20/03:30pm 12.8 9.1 8.1 73 2.3 SW 17 35 9 19 1010.3 1010.3 4.4
20/03:00pm 10.9 7.7 8.3 84 1.3 SW 15 24 8 13 1009.9 1009.9 4.4
20/02:30pm 11.1 8.4 8.8 86 1.1 SW 13 26 7 14 1009.8 1009.8 4.0
20/02:00pm 11.5 9.1 8.7 83 1.4 W 11 24 6 13 1009.8 1009.8 1.6
20/01:30pm 11.6 9.2 8.5 81 1.5 W 11 20 6 11 1009.7 1009.7 1.6
20/01:00pm 11.6 8.7 8.3 80 1.6 W 13 24 7 13 1009.8 1009.8 1.2
20/12:30pm 12.0 10.0 8.7 80 1.6 W 9 17 5 9 1010.2 1010.2 0.8
20/12:00pm 12.3 9.6 9.0 80 1.7 W 13 24 7 13 1010.7 1010.7 0.2
20/11:30am 12.8 9.1 9.6 81 1.6 WSW 19 35 10 19 1010.6 1010.6 0.2
20/11:00am 12.0 9.0 9.2 83 1.4 WSW 15 24 8 13 1010.6 1010.6 0.2
20/10:30am 12.4 9.4 9.2 81 1.6 SW 15 26 8 14 1010.4 1010.4 0.0
20/10:00am 13.6 8.8 7.2 65 3.1 WSW 22 37 12 20 1010.0 1010.0 0.0
20/09:30am 16.5 11.8 7.7 56 4.4 NNW 22 37 12 20 1009.3 1009.3 0.0
20/09:00am 16.5 11.3 8.7 60 4.0 NNW 26 39 14 21 1009.4 1009.4 0.0
20/08:30am 16.7 11.2 9.1 61 3.9 NNW 28 41 15 22 1009.3 1009.3 0.0
20/08:00am 16.4 11.6 8.9 61 3.9 NNW 24 39 13 21 1009.5 1009.5 0.0
20/07:30am 16.1 11.2 8.3 60 4.0 NNW 24 33 13 18 1009.4 1009.4 0.0
20/07:00am 16.3 11.9 9.0 62 3.8 NNW 22 35 12 19 1009.3 1009.3 0.0
20/06:30am 16.4 12.5 8.6 60 4.0 NNW 19 33 10 18 1009.4 1009.4 0.0
20/06:00am 16.2 11.9 9.2 63 3.6 NNW 22 35 12 19 1009.4 1009.4 0.0
20/05:30am 16.2 11.8 8.9 62 3.7 NNW 22 35 12 19 1009.5 1009.5 0.0
20/05:00am 16.4 11.5 8.6 60 4.0 NNW 24 35 13 19 1009.7 1009.7 0.0
20/04:30am 16.6 11.8 8.8 60 4.0 NNW 24 35 13 19 1009.8 1009.8 0.0
20/04:00am 16.7 12.2 8.7 59 4.1 NNW 22 30 12 16 1009.9 1009.9 0.0
20/03:30am 16.8 12.7 8.0 56 4.5 NW 19 28 10 15 1010.0 1010.0 0.0
20/03:00am 16.7 13.2 8.7 59 4.1 NNW 17 26 9 14 1010.1 1010.1 0.0
20/02:30am 16.6 12.8 9.1 61 3.9 NNW 19 26 10 14 1010.5 1010.5 0.0
20/02:00am 16.6 12.2 8.8 60 4.0 NNW 22 33 12 18 1010.8 1010.8 0.0
20/01:30am 16.8 13.6 8.5 58 4.2 NNW 15 26 8 14 1011.1 1011.1 0.0
20/01:00am 16.7 13.7 9.1 61 3.9 NNW 15 24 8 13 1011.4 1011.4 0.0
20/12:30am 16.1 13.0 10.4 69 3.0 NNW 17 24 9 13 1011.6 1011.6 0.0
20/12:00am 16.1 13.0 10.2 68 3.1 NNW 17 22 9 12 1011.8 1011.8 0.0
 
Date/Time
EST
Temp
°C
App
Temp
°C
Dew
Point
°C
Rel
Hum
%
Delta-T
°C
Wind Press
QNH
hPa
Press
MSL
hPa
Rain since
9am
mm
Dir  Spd
km/h
Gust
km/h
Spd
kts
Gust
kts
19/11:30pm 16.0 11.9 10.1 68 3.1 N 22 30 12 16 1011.9 1011.9 0.0
19/11:00pm 15.9 14.0 11.7 76 2.3 NNW 13 20 7 11 1012.4 1012.4 0.0
19/10:30pm 15.8 14.2 11.4 75 2.4 NNW 11 17 6 9 1012.7 1012.7 0.0
19/10:00pm 16.1 15.3 11.1 72 2.7 NNW 6 11 3 6 1012.9 1012.9 0.0
19/09:30pm 16.2 15.6 10.5 69 3.0 NW 4 7 2 4 1013.1 1013.1 0.0
19/09:00pm 16.6 14.9 9.8 64 3.6 W 9 17 5 9 1013.3 1013.3 0.0
19/08:30pm 16.9 15.7 9.6 62 3.8 W 6 11 3 6 1013.3 1013.3 0.0
19/08:00pm 16.9 16.1 9.6 62 3.8 NW 4 11 2 6 1013.3 1013.3 0.0
19/07:30pm 16.7 16.3 11.0 69 3.1 NW 4 9 2 5 1013.4 1013.4 0.0
19/07:00pm 16.7 16.3 11.0 69 3.1 NW 4 7 2 4 1013.3 1013.3 0.0
19/06:30pm 17.1 15.6 10.7 66 3.4 NNW 9 17 5 9 1013.2 1013.2 0.0
19/06:00pm 16.9 15.4 10.5 66 3.4 NNW 9 13 5 7 1012.9 1012.9 0.0
19/05:30pm 17.0 15.1 10.4 65 3.5 NNW 11 13 6 7 1012.9 1012.9 0.0
19/05:00pm 17.4 15.5 10.5 64 3.7 NNW 11 15 6 8 1013.0 1013.0 0.0
19/04:30pm 17.4 14.5 9.6 60 4.1 NNW 15 20 8 11 1013.2 1013.2 0.0
19/04:00pm 17.7 14.7 9.3 58 4.4 NNW 15 22 8 12 1013.3 1013.3 0.0
19/03:30pm 18.1 14.6 8.7 54 4.9 NNW 17 24 9 13 1013.4 1013.4 0.0
19/03:00pm 18.3 14.2 8.0 51 5.3 NNW 19 28 10 15 1013.5 1013.5 0.0
19/02:30pm 18.2 15.4 8.7 54 4.9 NNW 13 22 7 12 1013.7 1013.7 0.0
19/02:00pm 18.9 15.3 9.7 55 4.9 NNW 19 26 10 14 1014.1 1014.1 0.0
19/01:30pm 17.7 14.8 8.0 53 4.9 NW 13 24 7 13 1014.5 1014.5 0.0
19/01:00pm 17.7 15.6 8.3 54 4.8 WNW 9 19 5 10 1014.9 1014.9 0.0
19/12:30pm 18.1 16.5 8.7 54 4.9 WNW 7 20 4 11 1015.5 1015.5 0.0
19/12:00pm 17.5 15.6 8.9 57 4.4 WNW 9 20 5 11 1016.1 1016.1 0.0
19/11:30am 17.5 15.5 8.6 56 4.6 WNW 9 20 5 11 1016.5 1016.5 0.0
19/11:00am 17.5 15.6 8.9 57 4.4 WNW 9 19 5 10 1016.8 1016.8 0.0
19/10:30am 17.2 15.3 9.1 59 4.2 NW 9 19 5 10 1017.0 1017.0 0.0
19/10:00am 16.8 15.1 9.7 63 3.7 NW 9 20 5 11 1017.3 1017.3 0.0
19/09:30am 16.1 14.4 9.8 66 3.3 WNW 9 24 5 13 1017.5 1017.5 0.0
19/09:00am 15.5 13.7 9.6 68 3.1 NW 9 19 5 10 1017.5 1017.5 0.2
19/08:30am 14.7 13.3 9.7 72 2.6 NW 7 15 4 8 1017.5 1017.5 0.2
19/08:00am 14.1 12.7 9.7 75 2.3 NW 7 20 4 11 1017.2 1017.2 0.2
19/07:30am 13.7 11.9 9.6 76 2.1 NW 9 22 5 12 1016.9 1016.9 0.2
19/07:00am 13.8 12.4 9.6 76 2.1 NW 7 15 4 8 1017.0 1017.0 0.2
19/06:30am 14.0 12.6 9.4 74 2.4 WNW 7 17 4 9 1017.0 1017.0 0.2
19/06:00am 14.2 12.4 9.6 74 2.4 WNW 9 17 5 9 1017.0 1017.0 0.2
19/05:30am 14.2 13.2 10.4 78 2.0 WNW 6 9 3 5 1017.0 1017.0 0.2
19/05:00am 14.1 13.0 10.1 77 2.1 WNW 6 13 3 7 1016.9 1016.9 0.2
19/04:30am 13.9 11.8 9.7 76 2.2 WNW 11 22 6 12 1017.0 1017.0 0.2
19/04:00am 13.7 12.6 10.1 79 1.9 WNW 6 15 3 8 1017.1 1017.1 0.2
19/03:30am 13.5 12.9 10.3 81 1.7 NW 4 9 2 5 1017.2 1017.2 0.2
19/03:00am 13.4 13.1 10.2 81 1.7 W 2 7 1 4 1017.4 1017.4 0.2
19/02:30am 13.4 12.7 10.2 81 1.7 NW 4 9 2 5 1017.8 1017.8 0.2
19/02:00am 13.7 13.1 10.3 80 1.8 NW 4 13 2 7 1018.1 1018.1 0.2
19/01:30am 13.8 13.0 11.0 83 1.5 NW 6 11 3 6 1018.3 1018.3 0.2
19/01:00am 13.9 13.2 11.4 85 1.3 NNW 6 11 3 6 1018.5 1018.5 0.2
19/12:30am 13.9 13.3 11.8 87 1.1 NW 6 13 3 7 1018.7 1018.7 0.2
19/12:00am 13.8 13.6 11.7 87 1.1 WNW 4 6 2 3 1018.9 1018.9 0.2
 
Date/Time
EST
Temp
°C
App
Temp
°C
Dew
Point
°C
Rel
Hum
%
Delta-T
°C
Wind Press
QNH
hPa
Press
MSL
hPa
Rain since
9am
mm
Dir  Spd
km/h
Gust
km/h
Spd
kts
Gust
kts
18/11:30pm 13.9 14.1 11.8 87 1.1 NW 2 6 1 3 1019.0 1019.0 0.2
18/11:00pm 14.1 13.9 11.8 86 1.2 WNW 4 6 2 3 1019.2 1019.2 0.2
18/10:30pm 14.3 14.5 11.8 85 1.3 NNW 2 7 1 4 1019.5 1019.5 0.2
18/10:00pm 14.7 15.0 12.2 85 1.4 NW 2 6 1 3 1019.6 1019.6 0.2
18/09:30pm 14.9 13.9 12.4 85 1.4 N 9 13 5 7 1019.7 1019.7 0.2
18/09:00pm 14.7 14.9 12.0 84 1.5 NW 2 2 1 1 1019.8 1019.8 0.2
18/08:30pm 14.5 14.7 11.8 84 1.5 NW 2 6 1 3 1019.9 1019.9 0.2
18/08:00pm 14.3 14.2 12.0 86 1.2 W 4 7 2 4 1020.1 1020.1 0.2
18/07:30pm 13.7 13.3 11.0 84 1.4 W 4 6 2 3 1020.2 1020.2 0.2
18/07:00pm 14.2 13.9 11.4 83 1.5 W 4 6 2 3 1020.2 1020.2 0.2
18/06:30pm 14.6 13.9 11.4 81 1.7 W 6 9 3 5 1020.1 1020.1 0.2
18/06:00pm 15.1 14.8 11.3 78 2.0 W 4 7 2 4 1019.9 1019.9 0.2
18/05:30pm 15.4 14.5 10.8 74 2.4 W 6 9 3 5 1019.8 1019.8 0.0
18/05:00pm 15.8 14.7 10.8 72 2.7 WSW 7 13 4 7 1019.7 1019.7 0.0
18/04:30pm 16.1 15.1 11.1 72 2.7 W 7 13 4 7 1019.9 1019.9 0.0
18/04:00pm 16.5 15.2 11.2 71 2.8 WSW 9 13 5 7 1020.0 1020.0 0.0
18/03:30pm 15.9 14.6 11.3 74 2.5 W 9 19 5 10 1020.0 1020.0 0.0
18/03:00pm 15.3 13.2 11.3 77 2.1 WSW 13 24 7 13 1020.1 1020.1 0.0
18/02:30pm 16.2 14.5 11.2 72 2.7 WSW 11 17 6 9 1020.1 1020.1 0.0
18/02:00pm 17.1 14.9 10.7 66 3.4 W 13 22 7 12 1020.2 1020.2 0.0
18/01:30pm 17.5 16.5 10.9 65 3.6 W 7 15 4 8 1020.3 1020.3 0.0
18/01:00pm 16.7 15.1 10.1 65 3.5 WNW 9 15 5 8 1020.9 1020.9 0.0
18/12:30pm 16.8 15.2 10.2 65 3.5 NW 9 20 5 11 1021.2 1021.2 0.0
18/12:00pm 16.2 14.4 10.7 70 2.9 WNW 11 20 6 11 1021.6 1021.6 0.0
18/11:30am 17.5 15.4 11.1 66 3.5 NNW 13 20 7 11 1021.7 1021.7 0.0
18/11:00am 16.5 15.5 11.0 70 2.9 NW 7 15 4 8 1021.9 1021.9 0.0
18/10:30am 16.6 15.3 11.1 70 3.0 WNW 9 17 5 9 1022.1 1022.1 0.0
18/10:00am 16.4 15.8 12.2 76 2.3 WNW 7 17 4 9 1022.3 1022.3 0.0
18/09:30am 15.4 14.1 11.4 77 2.1 WNW 9 15 5 8 1022.4 1022.4 0.0
18/09:00am 14.7 13.7 11.1 79 1.9 WNW 7 15 4 8 1022.5 1022.5 0.0
18/08:30am 14.3 12.8 10.7 79 1.9 WNW 9 17 5 9 1022.6 1022.6 0.0
18/08:00am 14.3 13.8 10.7 79 1.9 NW 4 9 2 5 1022.3 1022.3 0.0
18/07:30am 14.1 13.0 10.5 79 1.9 W 7 17 4 9 1022.2 1022.2 0.0
18/07:00am 13.9 12.9 10.3 79 1.9 WNW 6 9 3 5 1022.1 1022.1 0.0
18/06:30am 13.8 12.6 10.4 80 1.8 WNW 7 13 4 7 1022.1 1022.1 0.0
18/06:00am 13.9 12.4 10.7 81 1.7 WNW 9 15 5 8 1022.1 1022.1 0.0
18/05:30am 14.0 13.5 10.6 80 1.8 WNW 4 13 2 7 1022.0 1022.0 0.0
18/05:00am 14.1 13.3 10.9 81 1.7 NW 6 13 3 7 1021.7 1021.7 0.0
18/04:30am 14.2 13.1 10.8 80 1.8 W 7 15 4 8 1021.9 1021.9 0.0
18/04:00am 13.8 12.7 10.8 82 1.6 W 7 15 4 8 1021.8 1021.8 0.0
18/03:30am 13.7 12.9 10.9 83 1.5 W 6 11 3 6 1021.9 1021.9 0.0
18/03:00am 14.0 13.6 11.2 83 1.5 WNW 4 6 2 3 1022.1 1022.1 0.0
18/02:30am 14.1 13.2 10.7 80 1.8 WNW 6 9 3 5 1022.3 1022.3 0.0
18/02:00am 14.1 13.1 10.9 81 1.7 WNW 7 15 4 8 1022.6 1022.6 0.0
18/01:30am 13.9 12.9 10.3 79 1.9 WNW 6 9 3 5 1022.9 1022.9 0.0
18/01:00am 14.2 13.2 10.4 78 2.0 WNW 6 11 3 6 1023.1 1023.1 0.0
18/12:30am 14.3 13.6 10.1 76 2.2 WNW 4 7 2 4 1023.2 1023.2 0.0
18/12:00am 14.4 13.2 9.6 73 2.5 WNW 6 11 3 6 1023.3 1023.3 0.0
 
Date/Time
EST
Temp
°C
App
Temp
°C
Dew
Point
°C
Rel
Hum
%
Delta-T
°C
Wind Press
QNH
hPa
Press
MSL
hPa
Rain since
9am
mm
Dir  Spd
km/h
Gust
km/h
Spd
kts
Gust
kts
17/11:30pm 14.1 12.7 9.5 74 2.4 W 7 11 4 6 1023.5 1023.5 0.0
17/11:00pm 14.0 13.9 9.4 74 2.3 CALM 0 2 0 1 1023.7 1023.7 0.0
17/10:30pm 13.7 12.7 8.7 72 2.5 WNW 4 6 2 3 1023.9 1023.9 0.0
17/10:00pm 13.9 13.1 8.1 68 2.9 WNW 2 6 1 3 1024.1 1024.1 0.0
17/09:30pm 14.2 13.0 7.9 66 3.1 WNW 4 6 2 3 1024.1 1024.1 0.0
17/09:00pm 14.2 13.3 7.7 65 3.2 WNW 2 6 1 3 1024.0 1024.0 0.0
17/08:30pm 14.2 13.3 7.9 66 3.1 WNW 2 4 1 2 1024.0 1024.0 0.0
17/08:00pm 14.0 12.7 7.5 65 3.2 NW 4 6 2 3 1023.9 1023.9 0.0
17/07:30pm 14.4 13.0 7.2 62 3.5 WNW 4 6 2 3 1023.9 1023.9 0.0
17/07:00pm 14.4 12.8 6.5 59 3.8 WNW 4 6 2 3 1023.8 1023.8 0.0
17/06:30pm 14.7 13.0 6.0 56 4.2 W 4 6 2 3 1023.7 1023.7 0.0
17/06:00pm 15.0 13.3 5.8 54 4.4 W 4 9 2 5 1023.6 1023.6 0.0
17/05:30pm 15.2 13.0 5.4 52 4.7 WSW 6 13 3 7 1023.5 1023.5 0.0

Latest Capital City Observations: Canberra | Sydney | Melbourne | Brisbane | Adelaide | Perth | Hobart | Darwin

Other formats

Comma delimited format used in spreadsheet applications
http://www.bom.gov.au/fwo/IDV60901/IDV60901.94892.axf

JavaScript Object Notation format (JSON) in row-major order
http://www.bom.gov.au/fwo/IDV60901/IDV60901.94892.json

Data quality

Most of these data are generated automatically and are frequently updated. Quality checks on data are not normally performed. It is possible for incorrect values to appear. Refer to information at About Latest Weather Observations and please check the disclaimer before using these data.